sensor_id;sensor_type;location;lat;lon;timestamp;temperature;humidity
3504;DHT22;1766;53.490;10.174;2023-02-11T00:00:20;13.20;43.50
3504;DHT22;1766;53.490;10.174;2023-02-11T00:02:22;13.20;43.60
3504;DHT22;1766;53.490;10.174;2023-02-11T00:04:28;13.20;43.70
3504;DHT22;1766;53.490;10.174;2023-02-11T00:06:31;13.20;43.80
3504;DHT22;1766;53.490;10.174;2023-02-11T00:08:34;13.20;44.00
3504;DHT22;1766;53.490;10.174;2023-02-11T00:10:36;13.20;43.70
3504;DHT22;1766;53.490;10.174;2023-02-11T00:12:38;13.20;43.40
3504;DHT22;1766;53.490;10.174;2023-02-11T00:14:40;13.20;43.50
3504;DHT22;1766;53.490;10.174;2023-02-11T00:16:42;13.20;43.70
3504;DHT22;1766;53.490;10.174;2023-02-11T00:18:44;13.20;43.80
3504;DHT22;1766;53.490;10.174;2023-02-11T00:20:48;13.20;44.00
3504;DHT22;1766;53.490;10.174;2023-02-11T00:22:49;13.20;43.90
3504;DHT22;1766;53.490;10.174;2023-02-11T00:24:51;13.20;44.00
3504;DHT22;1766;53.490;10.174;2023-02-11T00:26:53;13.20;44.00
3504;DHT22;1766;53.490;10.174;2023-02-11T00:28:55;13.20;44.00
3504;DHT22;1766;53.490;10.174;2023-02-11T00:30:57;13.20;44.10
3504;DHT22;1766;53.490;10.174;2023-02-11T00:33:01;13.20;44.10
3504;DHT22;1766;53.490;10.174;2023-02-11T00:35:03;13.10;44.10
3504;DHT22;1766;53.490;10.174;2023-02-11T00:37:06;13.20;44.30
3504;DHT22;1766;53.490;10.174;2023-02-11T00:39:08;13.20;44.00
3504;DHT22;1766;53.490;10.174;2023-02-11T00:41:11;13.20;44.30
3504;DHT22;1766;53.490;10.174;2023-02-11T00:43:14;13.20;44.50
3504;DHT22;1766;53.490;10.174;2023-02-11T00:45:16;13.10;44.30
3504;DHT22;1766;53.490;10.174;2023-02-11T00:47:18;13.10;44.40
3504;DHT22;1766;53.490;10.174;2023-02-11T00:49:20;13.10;44.40
3504;DHT22;1766;53.490;10.174;2023-02-11T00:51:22;13.20;44.00
3504;DHT22;1766;53.490;10.174;2023-02-11T00:53:25;13.20;44.40
3504;DHT22;1766;53.490;10.174;2023-02-11T00:55:27;13.20;44.80
3504;DHT22;1766;53.490;10.174;2023-02-11T00:57:33;13.20;44.30
3504;DHT22;1766;53.490;10.174;2023-02-11T00:59:35;13.20;44.30
3504;DHT22;1766;53.490;10.174;2023-02-11T01:01:37;13.10;44.50
3504;DHT22;1766;53.490;10.174;2023-02-11T01:03:39;13.10;44.60
3504;DHT22;1766;53.490;10.174;2023-02-11T01:05:41;13.10;44.90
3504;DHT22;1766;53.490;10.174;2023-02-11T01:07:43;13.00;45.00
3504;DHT22;1766;53.490;10.174;2023-02-11T01:09:46;13.00;45.10
3504;DHT22;1766;53.490;10.174;2023-02-11T01:11:48;13.00;45.30
3504;DHT22;1766;53.490;10.174;2023-02-11T01:13:50;12.90;45.30
3504;DHT22;1766;53.490;10.174;2023-02-11T01:15:52;12.90;45.50
3504;DHT22;1766;53.490;10.174;2023-02-11T01:17:54;12.80;45.60
3504;DHT22;1766;53.490;10.174;2023-02-11T01:19:56;13.00;45.70
3504;DHT22;1766;53.490;10.174;2023-02-11T01:21:58;12.90;45.70
3504;DHT22;1766;53.490;10.174;2023-02-11T01:24:00;12.90;45.70
3504;DHT22;1766;53.490;10.174;2023-02-11T01:26:04;12.00;44.90
3504;DHT22;1766;53.490;10.174;2023-02-11T01:28:05;12.90;45.60
3504;DHT22;1766;53.490;10.174;2023-02-11T01:30:10;13.00;45.80
3504;DHT22;1766;53.490;10.174;2023-02-11T01:32:13;13.00;46.10
3504;DHT22;1766;53.490;10.174;2023-02-11T01:34:15;13.00;45.80
3504;DHT22;1766;53.490;10.174;2023-02-11T01:36:17;13.00;45.70
3504;DHT22;1766;53.490;10.174;2023-02-11T01:38:21;13.10;45.70
3504;DHT22;1766;53.490;10.174;2023-02-11T01:40:24;13.00;46.20
3504;DHT22;1766;53.490;10.174;2023-02-11T01:42:35;13.10;46.30
3504;DHT22;1766;53.490;10.174;2023-02-11T01:44:38;13.10;46.50
3504;DHT22;1766;53.490;10.174;2023-02-11T01:46:40;13.10;46.50
3504;DHT22;1766;53.490;10.174;2023-02-11T01:48:44;13.10;46.50
3504;DHT22;1766;53.490;10.174;2023-02-11T01:50:51;13.00;46.70
3504;DHT22;1766;53.490;10.174;2023-02-11T01:52:55;13.10;47.00
3504;DHT22;1766;53.490;10.174;2023-02-11T01:55:17;13.10;46.80
3504;DHT22;1766;53.490;10.174;2023-02-11T01:57:36;13.10;46.70
3504;DHT22;1766;53.490;10.174;2023-02-11T01:59:42;13.20;47.00
3504;DHT22;1766;53.490;10.174;2023-02-11T02:01:50;13.10;46.90
3504;DHT22;1766;53.490;10.174;2023-02-11T02:03:59;13.10;47.00
3504;DHT22;1766;53.490;10.174;2023-02-11T02:06:05;13.10;47.10
3504;DHT22;1766;53.490;10.174;2023-02-11T02:08:15;13.10;47.00
3504;DHT22;1766;53.490;10.174;2023-02-11T02:10:22;13.20;47.40
3504;DHT22;1766;53.490;10.174;2023-02-11T02:12:25;13.10;47.30
3504;DHT22;1766;53.490;10.174;2023-02-11T02:14:28;13.10;47.50
3504;DHT22;1766;53.490;10.174;2023-02-11T02:16:32;13.10;47.50
3504;DHT22;1766;53.490;10.174;2023-02-11T02:18:40;13.10;47.60
3504;DHT22;1766;53.490;10.174;2023-02-11T02:21:16;13.10;47.60
3504;DHT22;1766;53.490;10.174;2023-02-11T02:23:48;13.10;47.80
3504;DHT22;1766;53.490;10.174;2023-02-11T02:26:19;13.10;47.70
3504;DHT22;1766;53.490;10.174;2023-02-11T02:28:48;13.10;47.80
3504;DHT22;1766;53.490;10.174;2023-02-11T02:31:25;13.10;47.80
3504;DHT22;1766;53.490;10.174;2023-02-11T02:33:42;13.20;48.10
3504;DHT22;1766;53.490;10.174;2023-02-11T02:35:52;13.20;48.10
3504;DHT22;1766;53.490;10.174;2023-02-11T02:38:02;13.30;48.30
3504;DHT22;1766;53.490;10.174;2023-02-11T02:40:11;13.20;48.30
3504;DHT22;1766;53.490;10.174;2023-02-11T02:42:17;13.20;48.30
3504;DHT22;1766;53.490;10.174;2023-02-11T02:44:20;13.30;48.30
3504;DHT22;1766;53.490;10.174;2023-02-11T02:46:24;13.30;48.40
3504;DHT22;1766;53.490;10.174;2023-02-11T02:48:30;13.30;48.40
3504;DHT22;1766;53.490;10.174;2023-02-11T02:50:36;13.40;48.60
3504;DHT22;1766;53.490;10.174;2023-02-11T02:52:46;13.40;48.50
3504;DHT22;1766;53.490;10.174;2023-02-11T02:55:08;13.40;48.60
3504;DHT22;1766;53.490;10.174;2023-02-11T02:57:40;13.30;48.60
3504;DHT22;1766;53.490;10.174;2023-02-11T03:02:33;13.40;48.60
3504;DHT22;1766;53.490;10.174;2023-02-11T03:04:44;13.50;48.60
3504;DHT22;1766;53.490;10.174;2023-02-11T03:06:54;13.40;48.60
3504;DHT22;1766;53.490;10.174;2023-02-11T03:09:03;13.40;48.60
3504;DHT22;1766;53.490;10.174;2023-02-11T03:11:09;13.40;48.70
3504;DHT22;1766;53.490;10.174;2023-02-11T03:13:12;13.40;48.70
3504;DHT22;1766;53.490;10.174;2023-02-11T03:15:18;13.50;48.90
3504;DHT22;1766;53.490;10.174;2023-02-11T03:17:22;13.40;48.80
3504;DHT22;1766;53.490;10.174;2023-02-11T03:19:29;13.30;48.80
3504;DHT22;1766;53.490;10.174;2023-02-11T03:21:35;13.40;48.90
3504;DHT22;1766;53.490;10.174;2023-02-11T03:23:45;13.40;49.00
3504;DHT22;1766;53.490;10.174;2023-02-11T03:25:53;13.30;49.00
3504;DHT22;1766;53.490;10.174;2023-02-11T03:28:02;13.40;49.20
3504;DHT22;1766;53.490;10.174;2023-02-11T03:30:10;13.30;49.00
3504;DHT22;1766;53.490;10.174;2023-02-11T03:32:19;13.30;49.10
3504;DHT22;1766;53.490;10.174;2023-02-11T03:34:28;13.30;49.20
3504;DHT22;1766;53.490;10.174;2023-02-11T03:36:38;13.40;49.30
3504;DHT22;1766;53.490;10.174;2023-02-11T03:38:48;13.40;49.40
3504;DHT22;1766;53.490;10.174;2023-02-11T03:40:54;13.40;49.30
3504;DHT22;1766;53.490;10.174;2023-02-11T03:43:00;13.40;49.30
3504;DHT22;1766;53.490;10.174;2023-02-11T03:45:07;13.40;49.80
3504;DHT22;1766;53.490;10.174;2023-02-11T03:47:12;13.40;49.30
3504;DHT22;1766;53.490;10.174;2023-02-11T03:49:18;13.30;49.30
3504;DHT22;1766;53.490;10.174;2023-02-11T03:51:22;13.40;49.40
3504;DHT22;1766;53.490;10.174;2023-02-11T03:53:25;13.40;49.40
3504;DHT22;1766;53.490;10.174;2023-02-11T03:55:29;13.50;49.50
3504;DHT22;1766;53.490;10.174;2023-02-11T03:57:35;13.50;49.50
3504;DHT22;1766;53.490;10.174;2023-02-11T03:59:53;13.60;49.50
3504;DHT22;1766;53.490;10.174;2023-02-11T04:01:56;13.50;49.40
3504;DHT22;1766;53.490;10.174;2023-02-11T04:03:58;13.60;49.30
3504;DHT22;1766;53.490;10.174;2023-02-11T04:06:00;13.60;49.30
3504;DHT22;1766;53.490;10.174;2023-02-11T04:08:03;13.60;49.30
3504;DHT22;1766;53.490;10.174;2023-02-11T04:10:06;13.70;49.40
3504;DHT22;1766;53.490;10.174;2023-02-11T04:12:09;13.70;49.40
3504;DHT22;1766;53.490;10.174;2023-02-11T04:14:11;13.80;49.40
3504;DHT22;1766;53.490;10.174;2023-02-11T04:16:13;13.80;49.40
3504;DHT22;1766;53.490;10.174;2023-02-11T04:18:15;13.80;49.40
3504;DHT22;1766;53.490;10.174;2023-02-11T04:20:16;13.80;49.40
3504;DHT22;1766;53.490;10.174;2023-02-11T04:22:18;13.80;49.40
3504;DHT22;1766;53.490;10.174;2023-02-11T04:24:20;13.80;49.40
3504;DHT22;1766;53.490;10.174;2023-02-11T04:26:22;13.90;49.50
3504;DHT22;1766;53.490;10.174;2023-02-11T04:28:25;13.90;49.50
3504;DHT22;1766;53.490;10.174;2023-02-11T04:30:28;13.90;49.40
3504;DHT22;1766;53.490;10.174;2023-02-11T04:32:30;13.90;49.40
3504;DHT22;1766;53.490;10.174;2023-02-11T04:34:32;14.10;49.60
3504;DHT22;1766;53.490;10.174;2023-02-11T04:36:34;14.00;49.40
3504;DHT22;1766;53.490;10.174;2023-02-11T04:38:35;14.10;49.40
3504;DHT22;1766;53.490;10.174;2023-02-11T04:40:37;14.00;49.30
3504;DHT22;1766;53.490;10.174;2023-02-11T04:42:39;14.00;49.30
3504;DHT22;1766;53.490;10.174;2023-02-11T04:44:42;14.00;49.30
3504;DHT22;1766;53.490;10.174;2023-02-11T04:46:44;14.10;49.30
3504;DHT22;1766;53.490;10.174;2023-02-11T04:48:46;14.10;49.20
3504;DHT22;1766;53.490;10.174;2023-02-11T04:50:47;14.10;49.20
3504;DHT22;1766;53.490;10.174;2023-02-11T04:52:49;14.20;49.20
3504;DHT22;1766;53.490;10.174;2023-02-11T04:54:51;14.10;49.00
3504;DHT22;1766;53.490;10.174;2023-02-11T04:56:53;14.10;49.00
3504;DHT22;1766;53.490;10.174;2023-02-11T04:58:54;14.10;49.00
3504;DHT22;1766;53.490;10.174;2023-02-11T05:01:05;14.10;49.10
3504;DHT22;1766;53.490;10.174;2023-02-11T05:03:08;14.10;49.10
3504;DHT22;1766;53.490;10.174;2023-02-11T05:05:09;14.20;49.00
3504;DHT22;1766;53.490;10.174;2023-02-11T05:07:11;14.20;49.50
3504;DHT22;1766;53.490;10.174;2023-02-11T05:09:13;14.20;48.90
3504;DHT22;1766;53.490;10.174;2023-02-11T05:11:18;14.20;48.90
3504;DHT22;1766;53.490;10.174;2023-02-11T05:13:21;14.30;49.00
3504;DHT22;1766;53.490;10.174;2023-02-11T05:15:23;14.30;49.00
3504;DHT22;1766;53.490;10.174;2023-02-11T05:17:26;14.30;48.90
3504;DHT22;1766;53.490;10.174;2023-02-11T05:19:28;14.20;48.80
3504;DHT22;1766;53.490;10.174;2023-02-11T05:21:31;14.30;48.90
3504;DHT22;1766;53.490;10.174;2023-02-11T05:23:33;14.30;48.90
3504;DHT22;1766;53.490;10.174;2023-02-11T05:25:35;14.30;49.00
3504;DHT22;1766;53.490;10.174;2023-02-11T05:27:37;14.30;49.00
3504;DHT22;1766;53.490;10.174;2023-02-11T05:29:38;14.30;49.10
3504;DHT22;1766;53.490;10.174;2023-02-11T05:31:40;14.30;49.60
3504;DHT22;1766;53.490;10.174;2023-02-11T05:33:43;14.30;49.00
3504;DHT22;1766;53.490;10.174;2023-02-11T05:35:45;14.20;48.90
3504;DHT22;1766;53.490;10.174;2023-02-11T05:37:47;14.20;48.90
3504;DHT22;1766;53.490;10.174;2023-02-11T05:39:49;14.20;49.50
3504;DHT22;1766;53.490;10.174;2023-02-11T05:41:51;14.10;49.00
3504;DHT22;1766;53.490;10.174;2023-02-11T05:43:52;14.10;49.10
3504;DHT22;1766;53.490;10.174;2023-02-11T05:45:54;14.10;49.30
3504;DHT22;1766;53.490;10.174;2023-02-11T05:47:56;14.10;49.40
3504;DHT22;1766;53.490;10.174;2023-02-11T05:49:59;14.10;49.40
3504;DHT22;1766;53.490;10.174;2023-02-11T05:52:01;14.10;49.40
3504;DHT22;1766;53.490;10.174;2023-02-11T05:54:03;14.10;49.50
3504;DHT22;1766;53.490;10.174;2023-02-11T05:56:05;14.20;49.60
3504;DHT22;1766;53.490;10.174;2023-02-11T05:58:07;14.20;49.60
3504;DHT22;1766;53.490;10.174;2023-02-11T06:00:10;14.10;49.40
3504;DHT22;1766;53.490;10.174;2023-02-11T06:02:13;14.20;49.60
3504;DHT22;1766;53.490;10.174;2023-02-11T06:04:15;14.20;49.60
3504;DHT22;1766;53.490;10.174;2023-02-11T06:06:19;14.20;49.60
3504;DHT22;1766;53.490;10.174;2023-02-11T06:08:21;14.20;49.60
3504;DHT22;1766;53.490;10.174;2023-02-11T06:10:22;14.20;49.60
3504;DHT22;1766;53.490;10.174;2023-02-11T06:12:31;14.20;49.60
3504;DHT22;1766;53.490;10.174;2023-02-11T06:14:33;14.20;49.70
3504;DHT22;1766;53.490;10.174;2023-02-11T06:16:35;14.30;49.70
3504;DHT22;1766;53.490;10.174;2023-02-11T06:18:37;14.20;49.60
3504;DHT22;1766;53.490;10.174;2023-02-11T06:20:38;14.40;49.80
3504;DHT22;1766;53.490;10.174;2023-02-11T06:22:42;14.30;49.80
3504;DHT22;1766;53.490;10.174;2023-02-11T06:24:44;14.20;49.70
3504;DHT22;1766;53.490;10.174;2023-02-11T06:26:46;14.20;49.70
3504;DHT22;1766;53.490;10.174;2023-02-11T06:28:48;14.30;49.80
3504;DHT22;1766;53.490;10.174;2023-02-11T06:30:49;14.30;49.70
3504;DHT22;1766;53.490;10.174;2023-02-11T06:32:54;14.30;49.80
3504;DHT22;1766;53.490;10.174;2023-02-11T06:34:55;14.20;49.70
3504;DHT22;1766;53.490;10.174;2023-02-11T06:36:57;14.30;49.80
3504;DHT22;1766;53.490;10.174;2023-02-11T06:39:00;14.30;49.70
3504;DHT22;1766;53.490;10.174;2023-02-11T06:41:02;14.30;49.80
3504;DHT22;1766;53.490;10.174;2023-02-11T06:43:04;14.30;49.90
3504;DHT22;1766;53.490;10.174;2023-02-11T06:45:07;14.40;49.90
3504;DHT22;1766;53.490;10.174;2023-02-11T06:47:10;14.30;50.00
3504;DHT22;1766;53.490;10.174;2023-02-11T06:49:12;14.40;50.00
3504;DHT22;1766;53.490;10.174;2023-02-11T06:51:14;14.40;50.00
3504;DHT22;1766;53.490;10.174;2023-02-11T06:53:17;14.40;50.20
3504;DHT22;1766;53.490;10.174;2023-02-11T06:55:20;14.40;50.20
3504;DHT22;1766;53.490;10.174;2023-02-11T06:57:21;14.40;50.20
3504;DHT22;1766;53.490;10.174;2023-02-11T06:59:23;14.40;50.30
3504;DHT22;1766;53.490;10.174;2023-02-11T07:01:26;14.50;50.30
3504;DHT22;1766;53.490;10.174;2023-02-11T07:03:28;14.50;50.30
3504;DHT22;1766;53.490;10.174;2023-02-11T07:05:30;14.50;50.30
3504;DHT22;1766;53.490;10.174;2023-02-11T07:07:33;14.50;50.20
3504;DHT22;1766;53.490;10.174;2023-02-11T07:09:35;14.50;50.20
3504;DHT22;1766;53.490;10.174;2023-02-11T07:11:38;14.50;50.10
3504;DHT22;1766;53.490;10.174;2023-02-11T07:13:41;14.40;50.00
3504;DHT22;1766;53.490;10.174;2023-02-11T07:15:43;14.50;50.10
3504;DHT22;1766;53.490;10.174;2023-02-11T07:17:44;14.50;50.10
3504;DHT22;1766;53.490;10.174;2023-02-11T07:19:46;14.50;50.10
3504;DHT22;1766;53.490;10.174;2023-02-11T07:21:48;14.40;50.10
3504;DHT22;1766;53.490;10.174;2023-02-11T07:23:50;14.40;50.10
3504;DHT22;1766;53.490;10.174;2023-02-11T07:25:52;14.40;50.20
3504;DHT22;1766;53.490;10.174;2023-02-11T07:27:55;14.40;50.30
3504;DHT22;1766;53.490;10.174;2023-02-11T07:29:57;14.30;50.20
3504;DHT22;1766;53.490;10.174;2023-02-11T07:31:59;14.40;50.50
3504;DHT22;1766;53.490;10.174;2023-02-11T07:34:01;14.20;50.30
3504;DHT22;1766;53.490;10.174;2023-02-11T07:36:05;14.40;50.70
3504;DHT22;1766;53.490;10.174;2023-02-11T07:38:08;14.30;50.60
3504;DHT22;1766;53.490;10.174;2023-02-11T07:40:10;14.30;50.70
3504;DHT22;1766;53.490;10.174;2023-02-11T07:42:12;14.30;50.70
3504;DHT22;1766;53.490;10.174;2023-02-11T07:44:15;14.30;50.80
3504;DHT22;1766;53.490;10.174;2023-02-11T07:46:19;14.30;51.00
3504;DHT22;1766;53.490;10.174;2023-02-11T07:48:23;14.30;51.10
3504;DHT22;1766;53.490;10.174;2023-02-11T07:50:25;14.30;51.10
3504;DHT22;1766;53.490;10.174;2023-02-11T07:52:28;14.30;51.00
3504;DHT22;1766;53.490;10.174;2023-02-11T07:54:30;14.40;51.20
3504;DHT22;1766;53.490;10.174;2023-02-11T07:56:39;14.40;51.10
3504;DHT22;1766;53.490;10.174;2023-02-11T07:58:41;14.40;51.20
3504;DHT22;1766;53.490;10.174;2023-02-11T08:00:44;14.40;51.30
3504;DHT22;1766;53.490;10.174;2023-02-11T08:02:46;14.40;51.20
3504;DHT22;1766;53.490;10.174;2023-02-11T08:04:48;14.50;51.30
3504;DHT22;1766;53.490;10.174;2023-02-11T08:06:50;14.50;51.20
3504;DHT22;1766;53.490;10.174;2023-02-11T08:08:53;14.50;51.30
3504;DHT22;1766;53.490;10.174;2023-02-11T08:10:55;14.50;51.30
3504;DHT22;1766;53.490;10.174;2023-02-11T08:12:57;14.60;51.40
3504;DHT22;1766;53.490;10.174;2023-02-11T08:14:59;14.60;51.40
3504;DHT22;1766;53.490;10.174;2023-02-11T08:17:02;14.60;51.50
3504;DHT22;1766;53.490;10.174;2023-02-11T08:19:07;14.60;51.50
3504;DHT22;1766;53.490;10.174;2023-02-11T08:21:10;14.60;51.60
3504;DHT22;1766;53.490;10.174;2023-02-11T08:23:12;14.60;51.60
3504;DHT22;1766;53.490;10.174;2023-02-11T08:25:14;14.70;51.70
3504;DHT22;1766;53.490;10.174;2023-02-11T08:27:16;14.70;51.70
3504;DHT22;1766;53.490;10.174;2023-02-11T08:29:18;14.70;51.70
3504;DHT22;1766;53.490;10.174;2023-02-11T08:31:22;14.70;51.70
3504;DHT22;1766;53.490;10.174;2023-02-11T08:33:25;14.80;51.90
3504;DHT22;1766;53.490;10.174;2023-02-11T08:35:27;14.80;51.80
3504;DHT22;1766;53.490;10.174;2023-02-11T08:37:29;14.80;51.70
3504;DHT22;1766;53.490;10.174;2023-02-11T08:39:31;14.80;51.60
3504;DHT22;1766;53.490;10.174;2023-02-11T08:41:33;14.80;51.60
3504;DHT22;1766;53.490;10.174;2023-02-11T08:43:36;14.90;51.70
3504;DHT22;1766;53.490;10.174;2023-02-11T08:45:41;14.80;51.60
3504;DHT22;1766;53.490;10.174;2023-02-11T08:47:42;14.80;51.60
3504;DHT22;1766;53.490;10.174;2023-02-11T08:49:45;14.80;51.70
3504;DHT22;1766;53.490;10.174;2023-02-11T08:51:48;14.90;51.80
3504;DHT22;1766;53.490;10.174;2023-02-11T08:53:50;14.70;51.70
3504;DHT22;1766;53.490;10.174;2023-02-11T08:55:53;14.80;51.80
3504;DHT22;1766;53.490;10.174;2023-02-11T08:57:56;14.80;51.90
3504;DHT22;1766;53.490;10.174;2023-02-11T08:59:57;14.80;51.80
3504;DHT22;1766;53.490;10.174;2023-02-11T09:01:59;14.80;51.90
3504;DHT22;1766;53.490;10.174;2023-02-11T09:04:01;14.90;52.00
3504;DHT22;1766;53.490;10.174;2023-02-11T09:06:07;14.90;52.00
3504;DHT22;1766;53.490;10.174;2023-02-11T09:08:10;14.90;52.00
3504;DHT22;1766;53.490;10.174;2023-02-11T09:10:12;14.90;51.90
3504;DHT22;1766;53.490;10.174;2023-02-11T09:12:25;14.90;51.80
3504;DHT22;1766;53.490;10.174;2023-02-11T09:14:27;14.90;51.90
3504;DHT22;1766;53.490;10.174;2023-02-11T09:16:34;14.90;51.60
3504;DHT22;1766;53.490;10.174;2023-02-11T09:18:37;14.90;52.40
3504;DHT22;1766;53.490;10.174;2023-02-11T09:20:38;14.90;51.80
3504;DHT22;1766;53.490;10.174;2023-02-11T09:22:42;14.90;51.90
3504;DHT22;1766;53.490;10.174;2023-02-11T09:24:44;14.90;52.00
3504;DHT22;1766;53.490;10.174;2023-02-11T09:26:46;15.00;52.00
3504;DHT22;1766;53.490;10.174;2023-02-11T09:28:49;14.90;51.90
3504;DHT22;1766;53.490;10.174;2023-02-11T09:30:51;14.90;51.80
3504;DHT22;1766;53.490;10.174;2023-02-11T09:32:53;15.00;52.00
3504;DHT22;1766;53.490;10.174;2023-02-11T09:34:55;15.00;51.80
3504;DHT22;1766;53.490;10.174;2023-02-11T09:36:57;15.00;51.80
3504;DHT22;1766;53.490;10.174;2023-02-11T09:39:01;15.10;51.70
3504;DHT22;1766;53.490;10.174;2023-02-11T09:41:04;15.10;52.00
3504;DHT22;1766;53.490;10.174;2023-02-11T09:43:11;15.20;51.90
3504;DHT22;1766;53.490;10.174;2023-02-11T09:45:18;15.20;51.90
3504;DHT22;1766;53.490;10.174;2023-02-11T09:47:25;15.10;51.80
3504;DHT22;1766;53.490;10.174;2023-02-11T09:49:34;15.00;51.90
3504;DHT22;1766;53.490;10.174;2023-02-11T09:51:45;15.10;52.00
3504;DHT22;1766;53.490;10.174;2023-02-11T09:53:53;15.20;51.90
3504;DHT22;1766;53.490;10.174;2023-02-11T09:56:03;15.10;51.80
3504;DHT22;1766;53.490;10.174;2023-02-11T09:58:13;15.20;52.00
3504;DHT22;1766;53.490;10.174;2023-02-11T10:00:20;15.20;52.00
3504;DHT22;1766;53.490;10.174;2023-02-11T10:02:29;15.20;51.90
3504;DHT22;1766;53.490;10.174;2023-02-11T10:04:50;15.20;51.80
3504;DHT22;1766;53.490;10.174;2023-02-11T10:07:08;15.20;51.90
3504;DHT22;1766;53.490;10.174;2023-02-11T10:09:36;15.20;52.00
3504;DHT22;1766;53.490;10.174;2023-02-11T10:11:51;15.20;52.10
3504;DHT22;1766;53.490;10.174;2023-02-11T10:14:08;15.20;52.00
3504;DHT22;1766;53.490;10.174;2023-02-11T10:16:32;15.10;51.90
3504;DHT22;1766;53.490;10.174;2023-02-11T10:18:53;15.30;52.10
3504;DHT22;1766;53.490;10.174;2023-02-11T10:21:16;15.30;52.00
3504;DHT22;1766;53.490;10.174;2023-02-11T10:23:23;15.30;52.00
3504;DHT22;1766;53.490;10.174;2023-02-11T10:25:32;15.30;52.00
3504;DHT22;1766;53.490;10.174;2023-02-11T10:27:38;15.30;52.00
3504;DHT22;1766;53.490;10.174;2023-02-11T10:29:43;15.40;51.90
3504;DHT22;1766;53.490;10.174;2023-02-11T10:31:48;15.40;52.00
3504;DHT22;1766;53.490;10.174;2023-02-11T10:33:55;15.40;52.00
3504;DHT22;1766;53.490;10.174;2023-02-11T10:36:00;15.40;52.10
3504;DHT22;1766;53.490;10.174;2023-02-11T10:38:05;15.40;51.90
3504;DHT22;1766;53.490;10.174;2023-02-11T10:40:13;15.50;51.60
3504;DHT22;1766;53.490;10.174;2023-02-11T10:42:18;15.40;52.00
3504;DHT22;1766;53.490;10.174;2023-02-11T10:44:24;15.40;51.80
3504;DHT22;1766;53.490;10.174;2023-02-11T10:46:31;15.40;51.90
3504;DHT22;1766;53.490;10.174;2023-02-11T10:48:39;15.40;51.90
3504;DHT22;1766;53.490;10.174;2023-02-11T10:50:45;15.30;51.90
3504;DHT22;1766;53.490;10.174;2023-02-11T10:52:47;15.30;51.90
3504;DHT22;1766;53.490;10.174;2023-02-11T10:55:01;15.30;51.60
3504;DHT22;1766;53.490;10.174;2023-02-11T10:57:05;15.20;52.20
3504;DHT22;1766;53.490;10.174;2023-02-11T10:59:14;15.30;51.80
3504;DHT22;1766;53.490;10.174;2023-02-11T11:01:21;15.20;52.20
3504;DHT22;1766;53.490;10.174;2023-02-11T11:03:24;15.20;52.20
3504;DHT22;1766;53.490;10.174;2023-02-11T11:05:30;15.50;52.40
3504;DHT22;1766;53.490;10.174;2023-02-11T11:07:35;15.30;52.20
3504;DHT22;1766;53.490;10.174;2023-02-11T11:09:44;15.20;52.30
3504;DHT22;1766;53.490;10.174;2023-02-11T11:11:51;15.30;52.30
3504;DHT22;1766;53.490;10.174;2023-02-11T11:13:55;15.30;52.50
3504;DHT22;1766;53.490;10.174;2023-02-11T11:16:09;15.20;52.60
3504;DHT22;1766;53.490;10.174;2023-02-11T11:18:20;15.20;52.70
3504;DHT22;1766;53.490;10.174;2023-02-11T11:20:24;15.20;52.60
3504;DHT22;1766;53.490;10.174;2023-02-11T11:22:27;15.20;53.20
3504;DHT22;1766;53.490;10.174;2023-02-11T11:24:32;15.10;52.50
3504;DHT22;1766;53.490;10.174;2023-02-11T11:26:42;15.20;52.90
3504;DHT22;1766;53.490;10.174;2023-02-11T11:29:00;15.20;52.90
3504;DHT22;1766;53.490;10.174;2023-02-11T11:31:13;15.20;53.00
3504;DHT22;1766;53.490;10.174;2023-02-11T11:33:21;15.20;52.90
3504;DHT22;1766;53.490;10.174;2023-02-11T11:35:28;15.30;53.00
3504;DHT22;1766;53.490;10.174;2023-02-11T11:37:34;15.30;52.80
3504;DHT22;1766;53.490;10.174;2023-02-11T11:39:37;15.40;53.00
3504;DHT22;1766;53.490;10.174;2023-02-11T11:41:49;15.40;53.00
3504;DHT22;1766;53.490;10.174;2023-02-11T11:43:55;15.40;53.10
3504;DHT22;1766;53.490;10.174;2023-02-11T11:45:59;15.40;53.00
3504;DHT22;1766;53.490;10.174;2023-02-11T11:48:05;15.50;53.20
3504;DHT22;1766;53.490;10.174;2023-02-11T11:50:25;15.50;53.20
3504;DHT22;1766;53.490;10.174;2023-02-11T11:52:36;15.60;53.40
3504;DHT22;1766;53.490;10.174;2023-02-11T11:54:44;15.50;53.20
3504;DHT22;1766;53.490;10.174;2023-02-11T11:56:52;17.00;54.30
3504;DHT22;1766;53.490;10.174;2023-02-11T11:58:59;15.70;53.20
3504;DHT22;1766;53.490;10.174;2023-02-11T12:01:14;15.60;53.10
3504;DHT22;1766;53.490;10.174;2023-02-11T12:03:33;15.60;53.10
3504;DHT22;1766;53.490;10.174;2023-02-11T12:05:51;15.60;53.10
3504;DHT22;1766;53.490;10.174;2023-02-11T12:08:09;15.60;53.10
3504;DHT22;1766;53.490;10.174;2023-02-11T12:10:28;15.70;53.10
3504;DHT22;1766;53.490;10.174;2023-02-11T12:12:39;15.70;53.10
3504;DHT22;1766;53.490;10.174;2023-02-11T12:14:56;15.70;53.10
3504;DHT22;1766;53.490;10.174;2023-02-11T12:17:13;15.80;53.10
3504;DHT22;1766;53.490;10.174;2023-02-11T12:19:41;15.80;53.10
3504;DHT22;1766;53.490;10.174;2023-02-11T12:22:17;15.80;52.80
3504;DHT22;1766;53.490;10.174;2023-02-11T12:24:34;15.70;52.70
3504;DHT22;1766;53.490;10.174;2023-02-11T12:26:51;15.60;52.70
3504;DHT22;1766;53.490;10.174;2023-02-11T12:29:05;15.70;52.80
3504;DHT22;1766;53.490;10.174;2023-02-11T12:31:18;15.60;52.70
3504;DHT22;1766;53.490;10.174;2023-02-11T12:36:05;15.60;52.90
3504;DHT22;1766;53.490;10.174;2023-02-11T12:38:26;15.60;52.90
3504;DHT22;1766;53.490;10.174;2023-02-11T12:40:39;15.60;52.90
3504;DHT22;1766;53.490;10.174;2023-02-11T12:42:50;15.60;52.70
3504;DHT22;1766;53.490;10.174;2023-02-11T12:45:20;15.60;52.90
3504;DHT22;1766;53.490;10.174;2023-02-11T12:47:34;15.60;52.90
3504;DHT22;1766;53.490;10.174;2023-02-11T12:50:07;15.60;52.80
3504;DHT22;1766;53.490;10.174;2023-02-11T12:52:26;15.50;53.00
3504;DHT22;1766;53.490;10.174;2023-02-11T12:54:38;15.60;53.20
3504;DHT22;1766;53.490;10.174;2023-02-11T12:56:47;15.50;53.20
3504;DHT22;1766;53.490;10.174;2023-02-11T12:58:55;15.50;53.30
3504;DHT22;1766;53.490;10.174;2023-02-11T13:01:05;16.40;53.80
3504;DHT22;1766;53.490;10.174;2023-02-11T13:03:16;15.40;53.60
3504;DHT22;1766;53.490;10.174;2023-02-11T13:05:24;15.60;53.40
3504;DHT22;1766;53.490;10.174;2023-02-11T13:07:32;15.60;53.60
3504;DHT22;1766;53.490;10.174;2023-02-11T13:09:40;15.60;53.40
3504;DHT22;1766;53.490;10.174;2023-02-11T13:11:47;15.70;53.30
3504;DHT22;1766;53.490;10.174;2023-02-11T13:13:55;15.80;53.60
3504;DHT22;1766;53.490;10.174;2023-02-11T13:16:00;15.80;53.40
3504;DHT22;1766;53.490;10.174;2023-02-11T13:18:15;15.80;53.30
3504;DHT22;1766;53.490;10.174;2023-02-11T13:20:30;15.80;53.50
3504;DHT22;1766;53.490;10.174;2023-02-11T13:22:40;15.80;53.50
3504;DHT22;1766;53.490;10.174;2023-02-11T13:24:49;15.90;53.30
3504;DHT22;1766;53.490;10.174;2023-02-11T13:27:00;15.90;53.40
3504;DHT22;1766;53.490;10.174;2023-02-11T13:29:17;15.80;53.40
3504;DHT22;1766;53.490;10.174;2023-02-11T13:31:24;15.90;53.60
3504;DHT22;1766;53.490;10.174;2023-02-11T13:33:33;15.90;53.40